M I D A S
Marine Information and Data Acquisition System
Tripno 1709 of the Zeeleeuw from 2009-06-15 06:11:10 to 2009-06-15 16:47:28
Back to CruiseResearch ActivitiesStationsMapUnderway DataData graphs

EquipmentUnitsComment
TimeDGPSUTC
LatitudeDGPSDM.mWGS84
LongitudeDGPSDM.mWGS84
HeadingGyrodeg 
SOGDGPSknotsSpeed over ground
COGDGPSdegCourse over ground
DepthEcho soundermeters200 kHz
Missing or incorrect values are displayed as -999
Navigation data collected by the RV Zeeleeuw from 2009-06-15 06:13:37 to 2009-06-15 16:59:58
Time Latitude Longitude Heading SOG COG Depth
2009-06-15 06:14:46 51°13.677 2°55.891 110.5 3.3 288 -999
2009-06-15 06:15:45 51°13.696 2°55.806 121.7 3.3 297 11.3
2009-06-15 06:16:46 51°13.737 2°55.722 141.6 4.4 317 -999
2009-06-15 06:17:45 51°13.778 2°55.679 161.1 2.8 335 12.3
2009-06-15 06:18:45 51°13.807 2°55.661 165.6 2.4 342 12.6
2009-06-15 06:19:45 51°13.866 2°55.641 173.5 4.1 353 -999
2009-06-15 06:20:46 51°13.924 2°55.643 198.2 2.9 11 -999
2009-06-15 06:21:44 51°13.944 2°55.647 230.8 0.4 296 12.9
2009-06-15 06:22:42 51°13.95 2°55.607 291.5 2.8 299 13
2009-06-15 06:23:42 51°14.007 2°55.53 328.2 6.6 326 12.7
2009-06-15 06:24:42 51°14.122 2°55.419 331.8 9.1 329 12.4
2009-06-15 06:25:42 51°14.253 2°55.266 319 10.4 315 12.5
2009-06-15 06:26:42 51°14.383 2°55.061 320.7 11.5 319 12.4
2009-06-15 06:27:42 51°14.542 2°54.874 323.1 12 326 11.8
2009-06-15 06:28:42 51°14.703 2°54.692 323 11.9 325 11.6
2009-06-15 06:29:42 51°14.865 2°54.51 325.8 12.1 327 11.4
2009-06-15 06:30:41 51°15.027 2°54.331 322.9 11.8 321 11.2
2009-06-15 06:31:42 51°15.128 2°54.071 287.2 11.5 286 10.9
2009-06-15 06:32:42 51°15.147 2°53.769 272.6 11.6 273 11.7
2009-06-15 06:33:42 51°15.178 2°53.465 280.1 11.5 281 11.8
2009-06-15 06:34:42 51°15.22 2°53.168 283.2 11.5 284 12.3
2009-06-15 06:35:42 51°15.267 2°52.872 282.3 11.5 283 12.7
2009-06-15 06:36:42 51°15.312 2°52.576 282.7 11.5 284 12.7
2009-06-15 06:37:42 51°15.361 2°52.282 283.3 11.4 285 13.3
2009-06-15 06:38:42 51°15.411 2°51.989 285.5 11.4 287 13.7
2009-06-15 06:39:42 51°15.462 2°51.696 285 11.5 285 14.2
2009-06-15 06:40:42 51°15.515 2°51.402 285.7 11.6 285 14.4
2009-06-15 06:41:42 51°15.562 2°51.106 282.4 11.5 283 14.6
2009-06-15 06:42:42 51°15.611 2°50.81 285.9 11.6 286 14.6
2009-06-15 06:43:42 51°15.661 2°50.515 283.6 11.5 285 14.7
2009-06-15 06:44:42 51°15.713 2°50.224 286.1 11.5 289 14.8
2009-06-15 06:45:42 51°15.768 2°49.932 285.4 11.6 286 13.8
2009-06-15 06:46:42 51°15.818 2°49.636 283.8 11.5 284 12.5
2009-06-15 06:47:42 51°15.862 2°49.341 283 11.5 283 12.3
2009-06-15 06:48:42 51°15.884 2°49.04 272.5 11.5 271 13.1
2009-06-15 06:49:42 51°15.886 2°48.736 270.7 11.5 271 14
2009-06-15 06:50:42 51°15.891 2°48.432 272.1 11.5 272 14.9
2009-06-15 06:51:42 51°15.906 2°48.127 276 11.6 276 16.2
2009-06-15 06:52:42 51°15.92 2°47.823 272.9 11.4 274 17
2009-06-15 06:53:42 51°15.932 2°47.522 273.8 11.4 274 17.6
2009-06-15 06:54:42 51°15.945 2°47.22 273.7 11.4 274 18.2
2009-06-15 06:55:42 51°15.967 2°46.92 281.2 11.5 280 17.9
2009-06-15 06:56:42 51°16.022 2°46.629 285.9 11.3 288 16.4
2009-06-15 06:57:42 51°16.094 2°46.35 294.2 11.4 296 13.9
2009-06-15 06:58:42 51°16.184 2°46.081 296.1 11.6 300 12.5
2009-06-15 06:59:42 51°16.274 2°45.806 294.8 11.8 297 11.8
2009-06-15 07:00:42 51°16.368 2°45.53 303.3 11.9 305 12.5
2009-06-15 07:01:42 51°16.511 2°45.303 317.9 12.3 319 13.3
2009-06-15 07:02:42 51°16.652 2°45.075 310.7 12 312 11.8
2009-06-15 07:03:42 51°16.785 2°44.838 309.5 12 310 12.1
2009-06-15 07:04:42 51°16.908 2°44.587 306.7 12 308 16
2009-06-15 07:05:42 51°17.029 2°44.336 305.6 12 307 17.4
2009-06-15 07:06:42 51°17.137 2°44.073 301.6 11.9 301 16.8
2009-06-15 07:07:42 51°17.244 2°43.807 302 11.9 303 16.1
2009-06-15 07:08:42 51°17.352 2°43.54 302.3 11.9 303 16.5
2009-06-15 07:09:42 51°17.458 2°43.273 302.4 11.9 303 13.2
2009-06-15 07:10:42 51°17.56 2°43.005 300.5 11.9 302 12.4
2009-06-15 07:11:42 51°17.67 2°42.741 301.3 12 304 22.5
2009-06-15 07:12:42 51°17.787 2°42.477 303.6 12.2 307 24.4
2009-06-15 07:13:42 51°17.899 2°42.214 301.6 11.9 303 25.5
2009-06-15 07:14:42 51°18.005 2°41.95 302.3 11.8 304 25.3
2009-06-15 07:15:42 51°18.115 2°41.689 302 11.9 303 23.9
2009-06-15 07:16:42 51°18.234 2°41.437 308.7 11.9 312 23.4
2009-06-15 07:17:42 51°18.371 2°41.207 314.1 11.9 315 20.4
2009-06-15 07:18:42 51°18.511 2°40.982 312.8 11.8 313 13.9
2009-06-15 07:19:42 51°18.644 2°40.749 311.7 11.9 312 18.5
2009-06-15 07:20:42 51°18.777 2°40.517 310 11.7 311 17.7
2009-06-15 07:21:42 51°18.902 2°40.274 305.7 11.9 309 23.3
2009-06-15 07:22:42 51°19.012 2°40.01 298.9 11.9 302 23.6
2009-06-15 07:23:42 51°19.108 2°39.732 295 12 298 25.4
2009-06-15 07:24:42 51°19.204 2°39.452 295.8 12.1 299 28.5
2009-06-15 07:25:42 51°19.304 2°39.175 297.7 12.1 302 30.1
2009-06-15 07:26:42 51°19.407 2°38.897 298.2 12.1 299 29.1
2009-06-15 07:27:42 51°19.505 2°38.615 298.6 12.2 300 26.1
2009-06-15 07:28:42 51°19.605 2°38.329 296.9 12.3 299 23.3
2009-06-15 07:29:42 51°19.705 2°38.042 298.3 12.4 299 23
2009-06-15 07:30:42 51°19.8 2°37.755 297.9 12.1 299 23.7
2009-06-15 07:31:42 51°19.881 2°37.505 296.4 8.7 298 23.3
2009-06-15 07:32:42 51°19.93 2°37.361 289.7 4.8 293 22.3
2009-06-15 07:33:42 51°19.951 2°37.264 278.9 3.4 285 23.2
2009-06-15 07:34:42 51°19.967 2°37.182 283.2 3.3 289 21.7
2009-06-15 07:35:42 51°19.989 2°37.091 285.4 3.9 290 22.4
2009-06-15 07:36:42 51°20.011 2°36.999 285.4 3.6 292 22.8
2009-06-15 07:37:42 51°20.046 2°36.928 316.4 3.4 321 23.9
2009-06-15 07:38:42 51°20.078 2°36.883 303 1.7 320 23.9
2009-06-15 07:39:42 51°20.089 2°36.874 315.6 0.3 68 22.3
2009-06-15 07:40:45 51°20.09 2°36.884 319 0.3 87 4.6
2009-06-15 07:41:45 51°20.076 2°36.913 319.5 2.4 134 -999
2009-06-15 07:42:45 51°20.08 2°36.916 312.8 2 321 26.5
2009-06-15 07:43:43 51°20.101 2°36.888 308.6 1 333 22.6
2009-06-15 07:44:42 51°20.102 2°36.895 314.9 0.5 102 -999
2009-06-15 07:45:42 51°20.098 2°36.914 312.5 0.8 111 22.3
2009-06-15 07:46:42 51°20.094 2°36.935 312 0.8 109 25.3
2009-06-15 07:47:42 51°20.088 2°36.958 313.8 1.4 118 24.2
2009-06-15 07:48:44 51°20.078 2°36.986 317.3 1.1 115 22.4
2009-06-15 07:49:42 51°20.071 2°37.007 322.2 0.9 114 20.9
2009-06-15 07:50:42 51°20.065 2°37.024 328.2 0.7 125 22.4
2009-06-15 07:51:42 51°20.06 2°37.038 333.9 0.6 123 22.3
2009-06-15 07:52:42 51°20.055 2°37.048 337.9 0.4 132 21.9
2009-06-15 07:53:42 51°20.052 2°37.056 340.9 0.3 130 21.4
2009-06-15 07:54:42 51°20.05 2°37.063 343.9 0.1 49 20.4
2009-06-15 07:55:42 51°20.062 2°37.059 320 1.2 333 20.4
2009-06-15 07:56:42 51°20.075 2°37.038 288.4 1 310 20.1
2009-06-15 07:57:42 51°20.084 2°37.018 281.7 0.9 308 20.8
2009-06-15 07:58:42 51°20.09 2°37.001 272 0.7 307 21.3
2009-06-15 07:59:42 51°20.095 2°36.987 272.3 0.6 305 21.2
2009-06-15 08:00:42 51°20.1 2°36.975 277.6 0.6 310 21.4
2009-06-15 08:01:42 51°20.107 2°36.964 287.6 0.5 317 21.8
2009-06-15 08:02:42 51°20.115 2°36.956 299.1 0.6 332 22.6
2009-06-15 08:03:42 51°20.123 2°36.949 308.6 0.7 343 22.8
2009-06-15 08:04:42 51°20.133 2°36.937 313.4 0.9 325 22.7
2009-06-15 08:05:42 51°20.147 2°36.923 316.5 1 323 22.7
2009-06-15 08:06:42 51°20.162 2°36.906 319.9 1.1 328 22
2009-06-15 08:07:42 51°20.176 2°36.892 325.6 0.9 334 20.9
2009-06-15 08:08:42 51°20.189 2°36.88 331.5 0.9 335 22.1
2009-06-15 08:09:42 51°20.201 2°36.87 338.9 0.8 337 22.6
2009-06-15 08:10:42 51°20.213 2°36.862 346.2 0.7 337 22.8
2009-06-15 08:11:42 51°20.224 2°36.855 352.9 0.7 348 23.1
2009-06-15 08:12:42 51°20.235 2°36.849 358.1 0.6 349 23.3
2009-06-15 08:13:42 51°20.244 2°36.844 2 0.6 346 23.4
2009-06-15 08:14:42 51°20.254 2°36.839 5.8 0.5 348 23.3
2009-06-15 08:15:42 51°20.262 2°36.833 9.6 0.5 335 23.3
2009-06-15 08:16:42 51°20.27 2°36.827 12.1 0.5 329 23.3
2009-06-15 08:17:42 51°20.277 2°36.822 14.8 0.5 333 22.8
2009-06-15 08:18:42 51°20.283 2°36.816 17.2 0.4 332 22.4
2009-06-15 08:19:42 51°20.289 2°36.809 18.5 0.3 328 22.5
2009-06-15 08:20:42 51°20.294 2°36.802 18.2 0.3 319 22.8
2009-06-15 08:21:42 51°20.299 2°36.794 16.8 0.4 314 22.9
2009-06-15 08:22:42 51°20.304 2°36.785 14.1 0.4 310 22.8
2009-06-15 08:23:42 51°20.309 2°36.776 11.8 0.4 312 23.1
2009-06-15 08:24:42 51°20.313 2°36.767 8.1 0.4 312 23
2009-06-15 08:25:42 51°20.317 2°36.757 5.2 0.4 314 23
2009-06-15 08:26:42 51°20.321 2°36.747 1.5 0.5 306 22.8
2009-06-15 08:27:42 51°20.325 2°36.738 358.2 0.3 324 22.8
2009-06-15 08:28:42 51°20.329 2°36.729 356.5 0.3 312 22.6
2009-06-15 08:29:42 51°20.332 2°36.72 352.9 0.4 295 22.6
2009-06-15 08:30:42 51°20.335 2°36.711 347.8 0.4 289 22.2
2009-06-15 08:31:42 51°20.337 2°36.703 342.5 0.3 299 22.3
2009-06-15 08:32:42 51°20.339 2°36.695 338.1 0.3 300 21.8
2009-06-15 08:33:42 51°20.341 2°36.688 335.4 0.2 293 21.9
2009-06-15 08:34:42 51°20.342 2°36.681 331.9 0.3 285 21.5
2009-06-15 08:35:42 51°20.342 2°36.674 327.9 0.2 289 21.2
2009-06-15 08:36:42 51°20.342 2°36.667 324.2 0.3 275 21.5
2009-06-15 08:37:42 51°20.342 2°36.66 321.2 0.2 272 21.5
2009-06-15 08:38:42 51°20.343 2°36.652 319.4 0.8 307 21.8
2009-06-15 08:39:42 51°20.38 2°36.639 20.4 3 13 21.4
2009-06-15 08:40:42 51°20.409 2°36.717 92.6 5.2 91 21.4
2009-06-15 08:41:42 51°20.356 2°36.89 125.8 8.4 129 22.6
2009-06-15 08:42:42 51°20.245 2°37.035 150.9 8.8 155 22.3
2009-06-15 08:43:42 51°20.111 2°37.082 177.1 6.4 181 22.4
2009-06-15 08:44:42 51°20.037 2°37.061 188.2 3.5 191 21.8
2009-06-15 08:45:42 51°19.992 2°37.056 165.9 2.2 174 20.6
2009-06-15 08:46:42 51°19.963 2°37.061 160.1 1.5 175 22.1
2009-06-15 08:47:42 51°19.941 2°37.064 161.8 1.1 184 22
2009-06-15 08:48:42 51°19.926 2°37.061 165 0.7 190 21.3
2009-06-15 08:49:42 51°19.918 2°37.053 165 0.5 215 20.2
2009-06-15 08:50:42 51°19.913 2°37.043 163.7 0.4 239 21.4
2009-06-15 08:51:42 51°19.91 2°37.031 163.6 0.4 248 22.1
2009-06-15 08:52:42 51°19.907 2°37.019 163.1 0.5 250 21.7
2009-06-15 08:53:42 51°19.903 2°37.006 161.8 0.5 252 21.7
2009-06-15 08:54:42 51°19.901 2°36.991 160.8 0.6 255 21.6
2009-06-15 08:55:42 51°19.899 2°36.976 159.9 0.5 258 21.5
2009-06-15 08:56:42 51°19.897 2°36.959 160.5 0.6 263 21.6
2009-06-15 08:57:42 51°19.892 2°36.943 162.8 0.8 214 20.8
2009-06-15 08:58:42 51°19.878 2°36.933 166.8 1 210 20.8
2009-06-15 08:59:42 51°19.866 2°36.923 157.7 0.7 211 21.9
2009-06-15 09:00:42 51°19.857 2°36.912 147.9 0.7 221 21.3
2009-06-15 09:01:42 51°19.85 2°36.9 142.4 0.6 230 21.2
2009-06-15 09:02:42 51°19.843 2°36.887 140.7 0.7 238 20.7
2009-06-15 09:03:42 51°19.837 2°36.872 140.8 0.7 241 20
2009-06-15 09:04:42 51°19.832 2°36.855 140.9 0.6 250 21
2009-06-15 09:05:42 51°19.827 2°36.836 142.6 0.7 251 21.1
2009-06-15 09:06:42 51°19.822 2°36.816 144.7 0.8 253 20.4
2009-06-15 09:07:42 51°19.819 2°36.796 149.8 0.8 256 21.6
2009-06-15 09:08:42 51°19.816 2°36.775 156.6 0.9 257 21.3
2009-06-15 09:09:42 51°19.813 2°36.753 163 0.7 259 19.7
2009-06-15 09:10:42 51°19.811 2°36.731 167 0.8 258 21.6
2009-06-15 09:11:42 51°19.808 2°36.71 170.6 0.8 262 21.6
2009-06-15 09:12:42 51°19.806 2°36.689 173.5 0.8 259 20.6
2009-06-15 09:13:42 51°19.804 2°36.668 176.8 0.7 262 21
2009-06-15 09:14:42 51°19.802 2°36.648 179.2 0.8 262 21.3
2009-06-15 09:15:42 51°19.8 2°36.627 181 0.7 260 21.4
2009-06-15 09:16:42 51°19.798 2°36.606 183 0.8 264 21
2009-06-15 09:17:42 51°19.797 2°36.585 186.3 0.8 263 20.3
2009-06-15 09:18:42 51°19.795 2°36.564 190.3 0.9 263 19.1
2009-06-15 09:19:42 51°19.793 2°36.542 193.4 0.9 263 21.3
2009-06-15 09:20:42 51°19.791 2°36.521 195.3 0.9 263 21.9
2009-06-15 09:21:42 51°19.789 2°36.499 196.8 0.8 263 22
2009-06-15 09:22:42 51°19.787 2°36.477 198.7 0.8 262 21.9
2009-06-15 09:23:42 51°19.785 2°36.455 200.8 0.9 266 21.4
2009-06-15 09:24:42 51°19.784 2°36.432 203.9 1 263 20.4
2009-06-15 09:25:42 51°19.779 2°36.407 207.9 1.1 249 19.7
2009-06-15 09:26:42 51°19.77 2°36.38 205.5 1.2 235 21.6
2009-06-15 09:27:42 51°19.755 2°36.35 198.6 1.9 219 21.1
2009-06-15 09:28:42 51°19.718 2°36.31 194.9 3.3 209 20.5
2009-06-15 09:29:42 51°19.664 2°36.27 187.4 3.4 201 20.5
2009-06-15 09:30:42 51°19.619 2°36.242 177.8 2.6 203 21.5
2009-06-15 09:31:42 51°19.584 2°36.22 179.9 2.5 204 21.4
2009-06-15 09:32:42 51°19.549 2°36.163 235.5 3 243 21.8
2009-06-15 09:33:42 51°19.532 2°36.093 249.7 2.7 255 19.4
2009-06-15 09:34:42 51°19.521 2°36.021 256.5 3.2 258 21.5
2009-06-15 09:35:42 51°19.512 2°35.934 261 3.7 260 19.9
2009-06-15 09:36:42 51°19.509 2°35.83 273.7 4.1 269 21.1
2009-06-15 09:37:43 51°19.511 2°35.711 276.8 5 273 20
2009-06-15 09:38:43 51°19.528 2°35.502 285.8 9.9 282 18.6
2009-06-15 09:39:43 51°19.581 2°35.219 291 11.9 288 17.5
2009-06-15 09:40:43 51°19.642 2°34.903 290.6 12.7 287 13.1
2009-06-15 09:41:43 51°19.747 2°34.621 316.8 12.4 313 16.9
2009-06-15 09:42:43 51°19.901 2°34.405 328.3 12.2 322 27.2
2009-06-15 09:43:43 51°20.064 2°34.206 327.8 12.3 322 29.2
2009-06-15 09:44:43 51°20.223 2°33.996 327.4 12.5 321 30
2009-06-15 09:45:43 51°20.385 2°33.784 325.9 12.6 321 30.2
2009-06-15 09:46:43 51°20.544 2°33.563 325.2 12.7 320 30.3
2009-06-15 09:47:43 51°20.71 2°33.354 328.9 12.6 323 29.9
2009-06-15 09:48:43 51°20.883 2°33.162 331.3 12.6 327 29.8
2009-06-15 09:49:43 51°21.054 2°32.97 329.4 12.6 325 29.2
2009-06-15 09:50:43 51°21.225 2°32.775 328.9 12.5 324 26.3
2009-06-15 09:51:43 51°21.391 2°32.582 329 12.3 323 20.2
2009-06-15 09:52:43 51°21.556 2°32.389 329.3 12.3 323 18.5
2009-06-15 09:53:43 51°21.721 2°32.195 329.6 12.3 322 24.3
2009-06-15 09:54:43 51°21.888 2°32.014 337.9 12 329 29.5
2009-06-15 09:55:43 51°22.063 2°31.863 339.7 12 332 28.6
2009-06-15 09:56:43 51°22.239 2°31.713 339 12 331 30.6
2009-06-15 09:57:43 51°22.415 2°31.557 339 12.2 331 30.4
2009-06-15 09:58:43 51°22.593 2°31.402 339.4 12.2 332 30
2009-06-15 09:59:43 51°22.773 2°31.25 339.8 12.3 333 29.6
2009-06-15 10:00:43 51°22.952 2°31.099 341.1 11.7 333 26
2009-06-15 10:01:43 51°23.11 2°30.968 339.8 9.9 332 28.4
2009-06-15 10:02:43 51°23.243 2°30.851 339.4 8.6 331 29.1
2009-06-15 10:03:43 51°23.362 2°30.747 344.5 7.2 336 30.9
2009-06-15 10:04:43 51°23.482 2°30.698 358.8 9.9 351 30.4
2009-06-15 10:05:43 51°23.667 2°30.639 353.3 11.7 347 32.9
2009-06-15 10:06:43 51°23.859 2°30.566 354.8 11.8 348 32.7
2009-06-15 10:07:43 51°24.051 2°30.496 353.8 11.7 346 33.3
2009-06-15 10:08:43 51°24.241 2°30.423 352.8 11.8 347 32.7
2009-06-15 10:09:43 51°24.424 2°30.36 356.3 9.1 348 32.9
2009-06-15 10:10:43 51°24.519 2°30.331 5.9 4.1 351 32.9
2009-06-15 10:11:43 51°24.569 2°30.317 11.7 2.6 348 32.4
2009-06-15 10:12:43 51°24.605 2°30.297 0.7 2.3 335 32.6
2009-06-15 10:13:43 51°24.635 2°30.255 333.3 2.3 310 32.6
2009-06-15 10:14:43 51°24.664 2°30.208 344.1 2.7 321 32.6
2009-06-15 10:15:43 51°24.686 2°30.181 6.8 1.1 303 32.4
2009-06-15 10:16:43 51°24.693 2°30.157 13.3 1.1 293 32.7
2009-06-15 10:17:43 51°24.699 2°30.129 12.9 1 286 32.9
2009-06-15 10:18:43 51°24.702 2°30.102 11.4 1.1 281 32.7
2009-06-15 10:19:43 51°24.704 2°30.074 9.6 1.1 276 32.3
2009-06-15 10:20:43 51°24.717 2°30.056 35.9 1.1 353 32.8
2009-06-15 10:21:43 51°24.728 2°30.077 86.5 1.6 89 32.7
2009-06-15 10:22:43 51°24.71 2°30.137 96.6 3 102 33.2
2009-06-15 10:23:43 51°24.687 2°30.206 123.2 2.4 140 32.4
2009-06-15 10:24:43 51°24.663 2°30.215 150.9 1.3 199 32.5
2009-06-15 10:25:43 51°24.644 2°30.196 170.7 1.4 218 32.3
2009-06-15 10:26:43 51°24.626 2°30.169 179.7 1.4 225 32.4
2009-06-15 10:27:43 51°24.61 2°30.14 180.7 1.4 230 32.4
2009-06-15 10:28:43 51°24.59 2°30.114 166.3 1.9 203 32.5
2009-06-15 10:29:43 51°24.561 2°30.134 102.7 2 115 32.5
2009-06-15 10:30:43 51°24.573 2°30.203 70.6 3.6 68 32.5
2009-06-15 10:31:43 51°24.612 2°30.264 27 3.3 14 32.3
2009-06-15 10:32:43 51°24.666 2°30.258 4.9 2.6 344 32.6
2009-06-15 10:33:43 51°24.685 2°30.224 342.2 1.7 302 32.7
2009-06-15 10:34:43 51°24.696 2°30.183 336.1 1.6 287 32
2009-06-15 10:35:43 51°24.702 2°30.142 336.9 1.5 282 32.7
2009-06-15 10:36:43 51°24.705 2°30.103 340.8 1.4 276 32.8
2009-06-15 10:37:43 51°24.707 2°30.065 345.1 1.5 282 32.4
2009-06-15 10:38:43 51°24.73 2°30.044 33 2 2 32.7
2009-06-15 10:39:43 51°24.742 2°30.067 83.1 1.2 97 32.6
2009-06-15 10:40:43 51°24.722 2°30.098 129.8 2.6 149 33
2009-06-15 10:41:43 51°24.701 2°30.151 87.6 2.6 98 32.8
2009-06-15 10:42:43 51°24.679 2°30.211 119.3 2.3 145 32.5
2009-06-15 10:43:43 51°24.65 2°30.221 143.1 1.6 187 32.5
2009-06-15 10:44:43 51°24.631 2°30.199 161.3 1.4 240 32.4
2009-06-15 10:45:43 51°24.621 2°30.166 177.4 1.4 243 32.3
2009-06-15 10:46:43 51°24.609 2°30.131 182.5 1.6 243 32.3
2009-06-15 10:47:43 51°24.597 2°30.095 182.9 1.5 241 32.4
2009-06-15 10:48:43 51°24.583 2°30.058 177.8 1.5 236 32.3
2009-06-15 10:49:43 51°24.57 2°30.022 170.9 1.6 240 32.4
2009-06-15 10:50:43 51°24.547 2°29.997 143 2.1 185 32.5
2009-06-15 10:51:43 51°24.485 2°29.991 185.3 5.2 199 33
2009-06-15 10:52:43 51°24.439 2°29.854 275.2 7.5 274 33.4
2009-06-15 10:53:43 51°24.522 2°29.621 307.4 12.1 299 32.7
2009-06-15 10:54:43 51°24.626 2°29.335 310.8 12.5 303 32.8
2009-06-15 10:55:43 51°24.732 2°29.071 307.8 10 301 31.3
2009-06-15 10:56:43 51°24.79 2°28.921 319.1 4.8 304 30.9
2009-06-15 10:57:43 51°24.807 2°28.866 358 1.5 283 29.9
2009-06-15 10:58:43 51°24.81 2°28.83 11.4 1.3 272 30.7
2009-06-15 10:59:43 51°24.809 2°28.794 19 1.3 264 28.6
2009-06-15 11:00:43 51°24.805 2°28.757 23 1.5 259 28.3
2009-06-15 11:01:43 51°24.8 2°28.717 20.4 1.6 258 27
2009-06-15 11:02:43 51°24.793 2°28.676 12.1 1.7 253 26.5
2009-06-15 11:03:43 51°24.784 2°28.633 0.7 1.6 250 26.8
2009-06-15 11:04:43 51°24.774 2°28.591 349.8 1.6 248 25.1
2009-06-15 11:05:43 51°24.763 2°28.549 341.1 1.6 250 23.3
2009-06-15 11:06:43 51°24.777 2°28.511 16.3 2 340 21.8
2009-06-15 11:07:43 51°24.793 2°28.556 97.1 3.6 107 22.7
2009-06-15 11:08:43 51°24.79 2°28.728 85.4 8.3 90 27.1
2009-06-15 11:09:43 51°24.756 2°28.96 116.1 9.8 122 31.7
2009-06-15 11:10:43 51°24.619 2°29.145 142.3 11.3 149 32.2
2009-06-15 11:11:43 51°24.449 2°29.286 145.9 11.6 153 33
2009-06-15 11:12:43 51°24.281 2°29.435 141.4 11.6 151 33.2
2009-06-15 11:13:43 51°24.123 2°29.603 139.6 10.6 146 32.6
2009-06-15 11:14:43 51°24.011 2°29.708 138.5 6.4 151 32.4
2009-06-15 11:15:43 51°23.924 2°29.777 138 5.5 154 32.6
2009-06-15 11:16:43 51°23.853 2°29.826 135.3 3.6 161 32.3
2009-06-15 11:17:43 51°23.816 2°29.839 114 1.5 179 32.3
2009-06-15 11:18:43 51°23.794 2°29.833 107.4 1.3 194 32.1
2009-06-15 11:19:43 51°23.773 2°29.855 99.3 2.5 125 32.7
2009-06-15 11:20:43 51°23.751 2°29.904 96.3 1.6 130 32.9
2009-06-15 11:21:43 51°23.737 2°29.924 90.6 1 153 32.4
2009-06-15 11:22:43 51°23.724 2°29.926 87.6 0.7 186 32.4
2009-06-15 11:23:43 51°23.712 2°29.917 84.5 0.8 216 32.3
2009-06-15 11:24:43 51°23.702 2°29.9 76.8 1 223 32.6
2009-06-15 11:25:43 51°23.694 2°29.875 68.5 1.1 245 32.6
2009-06-15 11:26:43 51°23.686 2°29.845 60.2 1.3 248 32.3
2009-06-15 11:27:43 51°23.678 2°29.809 50.3 1.5 253 32.5
2009-06-15 11:28:43 51°23.67 2°29.769 39.7 1.7 248 32.6
2009-06-15 11:29:43 51°23.66 2°29.727 29 1.6 248 32.6
2009-06-15 11:30:43 51°23.649 2°29.685 17.9 1.7 247 32.6
2009-06-15 11:31:43 51°23.637 2°29.642 7.1 1.8 246 33.3
2009-06-15 11:32:43 51°23.625 2°29.598 357.1 1.9 246 33.4
2009-06-15 11:33:43 51°23.613 2°29.553 348.2 1.9 246 33.3
2009-06-15 11:34:43 51°23.614 2°29.508 1.2 2.2 321 32.8
2009-06-15 11:35:43 51°23.648 2°29.505 39 2 20 33.1
2009-06-15 11:36:43 51°23.665 2°29.542 65.4 1.9 68 32.9
2009-06-15 11:37:43 51°23.676 2°29.596 69.5 2.3 74 33.2
2009-06-15 11:38:43 51°23.688 2°29.632 61.1 0.9 58 33
2009-06-15 11:39:43 51°23.694 2°29.63 43.3 0.5 309 33.2
2009-06-15 11:40:43 51°23.705 2°29.616 34.5 1 336 33.1
2009-06-15 11:41:43 51°23.715 2°29.617 60.3 0.7 47 33.3
2009-06-15 11:42:43 51°23.725 2°29.64 65.9 0.8 58 32.8
2009-06-15 11:43:43 51°23.721 2°29.618 78.1 1.6 253 33.2
2009-06-15 11:44:43 51°23.713 2°29.581 72 0.9 258 32.9
2009-06-15 11:45:43 51°23.717 2°29.595 69 1.6 70 33
2009-06-15 11:46:43 51°23.721 2°29.621 73.6 0.6 94 32.9
2009-06-15 11:47:43 51°23.719 2°29.629 82.9 0.3 162 32.9
2009-06-15 11:48:43 51°23.713 2°29.627 80.4 0.3 195 33.3
2009-06-15 11:49:43 51°23.715 2°29.641 68.3 1 60 33.1
2009-06-15 11:50:43 51°23.726 2°29.668 63.2 0.9 45 33.1
2009-06-15 11:51:43 51°23.733 2°29.669 57.1 0.5 312 32.9
2009-06-15 11:52:43 51°23.738 2°29.653 51.7 0.8 285 32.8
2009-06-15 11:53:43 51°23.741 2°29.632 56.6 0.7 305 32.9
2009-06-15 11:54:43 51°23.741 2°29.627 81.9 0.3 162 33.1
2009-06-15 11:55:43 51°23.74 2°29.635 71.7 0.5 69 33
2009-06-15 11:56:43 51°23.743 2°29.652 77 0.3 84 33
2009-06-15 11:57:43 51°23.739 2°29.654 83.5 0.3 198 33
2009-06-15 11:58:43 51°23.734 2°29.647 78.1 0.5 227 32.9
2009-06-15 11:59:43 51°23.733 2°29.642 70.6 0.1 354 32.8
2009-06-15 12:00:43 51°23.735 2°29.66 77.9 1.2 85 33
2009-06-15 12:01:43 51°23.735 2°29.681 77.4 0.4 95 32.8
2009-06-15 12:02:43 51°23.734 2°29.681 71 0.3 253 32.9
2009-06-15 12:03:43 51°23.734 2°29.667 65.1 0.8 267 33.1
2009-06-15 12:04:43 51°23.733 2°29.641 60.4 1.1 262 33
2009-06-15 12:05:43 51°23.73 2°29.61 58.6 1.2 260 33
2009-06-15 12:06:43 51°23.73 2°29.584 53.5 0.2 326 33.3
2009-06-15 12:07:43 51°23.738 2°29.606 78.5 1.7 83 33
2009-06-15 12:08:43 51°23.748 2°29.662 65.4 2.5 63 33.1
2009-06-15 12:09:43 51°23.77 2°29.702 55.8 1.5 31 33
2009-06-15 12:10:43 51°23.787 2°29.707 47.1 0.9 348 32.8
2009-06-15 12:11:43 51°23.799 2°29.695 43.2 0.9 310 32.6
2009-06-15 12:12:43 51°23.806 2°29.672 40.7 1 285 33.2
2009-06-15 12:13:43 51°23.809 2°29.642 38.7 1.2 277 33.2
2009-06-15 12:14:43 51°23.809 2°29.609 36.5 1.3 270 33
2009-06-15 12:15:43 51°23.808 2°29.571 34.9 1.5 266 33.1
2009-06-15 12:16:43 51°23.806 2°29.532 34.6 1.6 263 32.9
2009-06-15 12:17:43 51°23.801 2°29.491 36.2 1.6 259 33.1
2009-06-15 12:18:43 51°23.795 2°29.449 36.3 1.7 260 33
2009-06-15 12:19:43 51°23.792 2°29.409 33.9 1.2 279 33.4
2009-06-15 12:20:43 51°23.822 2°29.411 39.7 3.8 25 32.9
2009-06-15 12:21:43 51°23.854 2°29.519 80.5 6.1 82 33
2009-06-15 12:22:43 51°23.871 2°29.725 84.6 9 87 33.3
2009-06-15 12:23:43 51°23.825 2°29.962 114.1 9.8 122 32.8
2009-06-15 12:24:43 51°23.722 2°30.173 123.9 10.2 133 32.3
2009-06-15 12:25:43 51°23.609 2°30.373 125 10.1 131 33.1
2009-06-15 12:26:43 51°23.494 2°30.585 123.5 10.9 130 32.7
2009-06-15 12:27:43 51°23.378 2°30.805 122.8 10.7 128 29.3
2009-06-15 12:28:43 51°23.266 2°31.028 121.6 10.7 129 27.4
2009-06-15 12:29:43 51°23.156 2°31.253 121.1 10.7 128 27.1
2009-06-15 12:30:43 51°23.046 2°31.476 122 10.8 130 26.6
2009-06-15 12:31:43 51°22.937 2°31.702 121.2 10.8 128 30.4
2009-06-15 12:32:43 51°22.806 2°31.904 131.4 11.1 142 30.6
2009-06-15 12:33:43 51°22.663 2°32.094 133.2 11.2 141 29.6
2009-06-15 12:34:43 51°22.518 2°32.283 132.6 11.3 140 30.6
2009-06-15 12:35:43 51°22.375 2°32.478 130.7 11.3 140 30.2
2009-06-15 12:36:43 51°22.234 2°32.676 131.6 11.4 139 30.1
2009-06-15 12:37:43 51°22.093 2°32.877 131.3 11.4 137 30.1
2009-06-15 12:38:43 51°21.952 2°33.081 130.1 11.5 139 25.5
2009-06-15 12:39:43 51°21.808 2°33.282 132.9 11.5 139 22.8
2009-06-15 12:40:43 51°21.666 2°33.485 130.8 11.5 137 25.2
2009-06-15 12:41:43 51°21.521 2°33.684 132 11.4 140 29.1
2009-06-15 12:42:43 51°21.379 2°33.881 131.4 11.2 137 32.6
2009-06-15 12:43:43 51°21.242 2°34.08 129.8 11.1 138 30.9
2009-06-15 12:44:43 51°21.101 2°34.275 132.4 11.1 139 30.4
2009-06-15 12:45:43 51°20.958 2°34.469 132.2 11.3 140 30.7
2009-06-15 12:46:43 51°20.815 2°34.662 131.3 11.1 137 31.5
2009-06-15 12:47:43 51°20.676 2°34.863 130.9 11.2 139 30.3
2009-06-15 12:48:43 51°20.535 2°35.062 132.1 10.7 140 29.6
2009-06-15 12:49:43 51°20.419 2°35.228 121.7 8.4 129 25.8
2009-06-15 12:50:43 51°20.352 2°35.417 107.3 8.2 114 20.2
2009-06-15 12:51:43 51°20.309 2°35.618 99.8 7.9 106 17.4
2009-06-15 12:52:43 51°20.271 2°35.832 99 9.1 107 18.1
2009-06-15 12:53:43 51°20.226 2°36.066 101.7 9.3 108 19.1
2009-06-15 12:54:43 51°20.177 2°36.304 101.7 9.4 108 20.5
2009-06-15 12:55:43 51°20.13 2°36.516 101 6.2 112 21.6
2009-06-15 12:56:43 51°20.09 2°36.605 123 3.1 151 21
2009-06-15 12:57:43 51°20.058 2°36.613 112.6 1.6 185 22.3
2009-06-15 12:58:43 51°20.033 2°36.603 112.7 1.7 201 22.1
2009-06-15 12:59:43 51°20.008 2°36.583 122.4 1.7 209 21.7
2009-06-15 13:00:43 51°19.984 2°36.555 133.8 1.9 221 20.6
2009-06-15 13:01:43 51°19.963 2°36.518 146 1.9 233 21.1
2009-06-15 13:02:43 51°19.946 2°36.476 162.2 1.9 244 21.4
2009-06-15 13:03:43 51°19.934 2°36.433 181 1.7 248 21.3
2009-06-15 13:04:43 51°19.925 2°36.395 194.2 1.5 249 21.3
2009-06-15 13:05:43 51°19.917 2°36.359 205.7 1.4 252 20.4
2009-06-15 13:06:43 51°19.909 2°36.327 216.4 1.2 248 21.1
2009-06-15 13:07:43 51°19.902 2°36.299 222.7 1.1 247 21.5
2009-06-15 13:08:43 51°19.895 2°36.271 228 1.1 245 21.1
2009-06-15 13:09:43 51°19.886 2°36.244 233.8 1.1 240 20.2
2009-06-15 13:10:43 51°19.877 2°36.218 239.1 1.1 239 20.8
2009-06-15 13:11:43 51°19.867 2°36.191 246.4 1.1 240 21.6
2009-06-15 13:12:43 51°19.855 2°36.165 252.5 1.2 239 21
2009-06-15 13:13:43 51°19.843 2°36.141 258.9 1.2 227 20.7
2009-06-15 13:14:43 51°19.828 2°36.117 267.2 1.2 224 20.6
2009-06-15 13:15:43 51°19.813 2°36.092 274.5 1.4 228 21.4
2009-06-15 13:16:43 51°19.795 2°36.065 278.4 1.5 225 20.8
2009-06-15 13:17:43 51°19.777 2°36.038 279.7 1.5 226 21
2009-06-15 13:18:43 51°19.758 2°36.005 279.5 1.8 232 20.3
2009-06-15 13:19:43 51°19.74 2°35.968 281.8 1.8 233 21
2009-06-15 13:20:43 51°19.723 2°35.928 286.4 1.8 236 20.8
2009-06-15 13:21:43 51°19.707 2°35.886 291.2 1.9 240 21
2009-06-15 13:22:43 51°19.691 2°35.844 298.4 1.8 239 20.9
2009-06-15 13:23:43 51°19.677 2°35.802 303.5 1.9 240 20.3
2009-06-15 13:24:43 51°19.662 2°35.76 308.8 1.9 241 20.8
2009-06-15 13:25:43 51°19.647 2°35.72 313.6 1.8 240 19.7
2009-06-15 13:26:43 51°19.632 2°35.68 319.8 1.7 240 20.6
2009-06-15 13:27:43 51°19.618 2°35.641 327.1 1.7 237 19.5
2009-06-15 13:28:43 51°19.602 2°35.603 334.2 1.6 238 20.4
2009-06-15 13:29:43 51°19.587 2°35.565 342.6 1.7 236 20.1
2009-06-15 13:30:43 51°19.572 2°35.527 351.4 1.7 236 18.4
2009-06-15 13:31:43 51°19.556 2°35.49 355.3 1.7 237 19.8
2009-06-15 13:32:43 51°19.54 2°35.454 357.7 1.7 235 18.8
2009-06-15 13:33:43 51°19.523 2°35.416 355 1.7 236 19.2
2009-06-15 13:34:43 51°19.507 2°35.378 352.1 1.8 237 19.8
2009-06-15 13:35:43 51°19.49 2°35.342 347.5 1.7 234 19.6
2009-06-15 13:36:43 51°19.473 2°35.305 342.7 1.7 232 19
2009-06-15 13:37:43 51°19.457 2°35.268 336.9 1.6 233 19.4
2009-06-15 13:38:43 51°19.44 2°35.232 334.6 1.7 232 18
2009-06-15 13:39:43 51°19.423 2°35.196 333.4 1.7 233 19.7
2009-06-15 13:40:43 51°19.407 2°35.16 334.3 1.7 245 18.8
2009-06-15 13:41:43 51°19.425 2°35.141 32.8 3 30 19.2
2009-06-15 13:42:43 51°19.475 2°35.287 57.4 9.1 55 19.8
2009-06-15 13:43:43 51°19.595 2°35.465 43.6 10.2 42 19.4
2009-06-15 13:44:43 51°19.713 2°35.661 49.5 10.2 47 20.2
2009-06-15 13:45:43 51°19.822 2°35.864 57.1 10 57 20.5
2009-06-15 13:46:43 51°19.894 2°36.109 67.9 10.3 67 21.4
2009-06-15 13:47:43 51°19.967 2°36.357 66.1 10.3 67 22
2009-06-15 13:48:43 51°20.009 2°36.603 75.7 7.4 78 22.4
2009-06-15 13:49:43 51°20.037 2°36.711 52 2.5 51 21.2
2009-06-15 13:50:43 51°20.055 2°36.715 17.5 1.1 323 21.8
2009-06-15 13:51:43 51°20.064 2°36.69 6.8 1.2 292 21.9
2009-06-15 13:52:43 51°20.068 2°36.66 6.4 1.2 272 21.9
2009-06-15 13:53:43 51°20.067 2°36.63 12.6 1.1 262 21
2009-06-15 13:54:43 51°20.063 2°36.6 14.6 1 253 22.6
2009-06-15 13:55:43 51°20.057 2°36.567 13.2 1.3 251 22.3
2009-06-15 13:56:43 51°20.049 2°36.536 14.2 1.3 246 22.3
2009-06-15 13:57:43 51°20.045 2°36.507 26.4 0.9 275 21.7
2009-06-15 13:58:43 51°20.049 2°36.496 53.8 0.2 343 21.6
2009-06-15 13:59:43 51°20.052 2°36.513 67.3 1.1 76 22.2
2009-06-15 14:00:43 51°20.059 2°36.557 69.8 2 75 21.8
2009-06-15 14:01:43 51°20.068 2°36.605 65.5 1.4 74 22.3
2009-06-15 14:02:43 51°20.073 2°36.629 60 0.6 65 21.2
2009-06-15 14:03:43 51°20.076 2°36.635 52.4 0.2 324 21.7
2009-06-15 14:04:43 51°20.077 2°36.629 46.9 0.3 283 21.9
2009-06-15 14:05:43 51°20.075 2°36.615 43.9 0.6 257 21.4
2009-06-15 14:06:43 51°20.073 2°36.597 43.2 0.7 255 22.4
2009-06-15 14:07:43 51°20.069 2°36.578 42.2 0.8 248 22.3
2009-06-15 14:08:43 51°20.064 2°36.555 39.6 0.9 245 22.1
2009-06-15 14:09:43 51°20.057 2°36.53 33.8 1 247 22.4
2009-06-15 14:10:43 51°20.05 2°36.502 26.5 1.2 246 21.9
2009-06-15 14:11:43 51°20.042 2°36.472 18 1.3 246 21.4
2009-06-15 14:12:43 51°20.034 2°36.441 8.3 1.2 246 22.5
2009-06-15 14:13:43 51°20.024 2°36.409 2.2 1.4 243 22.2
2009-06-15 14:14:43 51°20.013 2°36.377 357.9 1.3 242 21.8
2009-06-15 14:15:43 51°20.002 2°36.344 353.8 1.5 240 22.4
2009-06-15 14:16:43 51°19.991 2°36.314 349.9 1.4 242 22.5
2009-06-15 14:17:43 51°19.999 2°36.287 17.7 1.2 339 21.7
2009-06-15 14:18:43 51°20.013 2°36.307 71.9 2.2 83 22.7
2009-06-15 14:19:43 51°19.983 2°36.36 133.4 3.3 151 22.8
2009-06-15 14:20:43 51°19.937 2°36.394 128.9 2.6 154 22.3
2009-06-15 14:21:43 51°19.898 2°36.427 116.9 3.2 130 21.4
2009-06-15 14:22:43 51°19.908 2°36.521 56.7 4.6 56 21.5
2009-06-15 14:23:43 51°19.956 2°36.626 58.8 4.2 57 22.3
2009-06-15 14:24:43 51°19.986 2°36.676 37.5 1.8 26 22.2
2009-06-15 14:25:43 51°20.009 2°36.683 28.6 1.1 359 22.3
2009-06-15 14:26:43 51°20.024 2°36.676 24.3 0.8 333 22.8
2009-06-15 14:27:43 51°20.031 2°36.66 22.6 0.8 273 22.8
2009-06-15 14:28:43 51°20.024 2°36.634 21.2 1.2 242 22.8
2009-06-15 14:29:43 51°20.014 2°36.605 6.6 1.3 241 22.7
2009-06-15 14:30:43 51°20.003 2°36.578 352.6 1.2 239 22.6
2009-06-15 14:31:43 51°19.992 2°36.55 341.7 1.3 237 21.5
2009-06-15 14:32:43 51°19.981 2°36.522 334.8 1.2 237 22.1
2009-06-15 14:33:43 51°19.97 2°36.496 331.3 1.2 235 21.9
2009-06-15 14:34:43 51°19.959 2°36.469 329.9 1.2 236 22.5
2009-06-15 14:35:43 51°19.947 2°36.444 332.1 1.1 237 22.1
2009-06-15 14:36:43 51°19.936 2°36.419 334 1.1 234 22.4
2009-06-15 14:37:43 51°19.925 2°36.394 335.4 1.2 232 22.5
2009-06-15 14:38:43 51°19.912 2°36.369 336.9 1.1 233 21.5
2009-06-15 14:39:43 51°19.9 2°36.345 336.1 1.3 232 22.5
2009-06-15 14:40:43 51°19.888 2°36.322 335 1.1 231 22.5
2009-06-15 14:41:43 51°19.876 2°36.299 334 1.1 229 21.9
2009-06-15 14:42:43 51°19.863 2°36.276 332.1 1.1 228 21.3
2009-06-15 14:43:43 51°19.851 2°36.255 330.8 1.1 230 22.5
2009-06-15 14:44:43 51°19.838 2°36.234 329.6 1.1 226 22.7
2009-06-15 14:45:43 51°19.827 2°36.214 327.7 1 226 22
2009-06-15 14:46:43 51°19.815 2°36.194 325.2 1.1 223 21.5
2009-06-15 14:47:43 51°19.812 2°36.169 341.2 1.7 316 22.7
2009-06-15 14:48:43 51°19.854 2°36.205 56.7 5.2 59 22.7
2009-06-15 14:49:43 51°19.9 2°36.374 56.4 7.8 55 22.3
2009-06-15 14:50:43 51°19.977 2°36.507 44.8 6.2 43 22.4
2009-06-15 14:51:43 51°20.026 2°36.589 54.8 3.1 54 23.3
2009-06-15 14:52:43 51°20.044 2°36.642 69 1.7 70 23.4
2009-06-15 14:53:43 51°20.049 2°36.677 72.9 1.1 81 21.9
2009-06-15 14:54:43 51°20.048 2°36.678 70.8 0.4 236 21.9
2009-06-15 14:55:43 51°20.043 2°36.668 63.1 0.5 229 21.6
2009-06-15 14:56:43 51°20.039 2°36.655 51.3 0.6 238 23.1
2009-06-15 14:57:43 51°20.034 2°36.642 38.3 0.6 242 23.5
2009-06-15 14:58:43 51°20.029 2°36.628 27.5 0.7 242 23.6
2009-06-15 14:59:43 51°20.024 2°36.613 16.4 0.6 240 23.5
2009-06-15 15:00:43 51°20.019 2°36.599 7.2 0.6 238 23.5
2009-06-15 15:01:43 51°20.015 2°36.584 355.5 0.6 238 23.3
2009-06-15 15:02:43 51°20.01 2°36.57 345.6 0.6 246 23.1
2009-06-15 15:03:43 51°20.006 2°36.557 337.6 0.6 245 22.4
2009-06-15 15:04:43 51°20.002 2°36.543 332 0.5 242 21.7
2009-06-15 15:05:43 51°19.998 2°36.531 328.2 0.6 241 21.2
2009-06-15 15:06:43 51°19.994 2°36.517 326.8 0.5 243 22.9
2009-06-15 15:07:43 51°19.99 2°36.504 324.7 0.5 247 23
2009-06-15 15:08:43 51°19.986 2°36.492 324.6 0.6 241 23
2009-06-15 15:09:43 51°19.982 2°36.48 325.8 0.6 241 22.7
2009-06-15 15:10:43 51°19.978 2°36.468 326.7 0.5 241 22.1
2009-06-15 15:11:43 51°19.974 2°36.456 328.1 0.5 242 21.8
2009-06-15 15:12:43 51°19.97 2°36.444 328.3 0.5 245 23
2009-06-15 15:13:43 51°19.966 2°36.434 328.5 0.4 236 23.4
2009-06-15 15:14:43 51°19.961 2°36.425 328.7 0.5 237 23.1
2009-06-15 15:15:43 51°19.957 2°36.416 327.5 0.5 240 23.1
2009-06-15 15:16:43 51°19.953 2°36.407 325 0.4 231 23
2009-06-15 15:17:43 51°19.949 2°36.398 324.5 0.4 241 22.9
2009-06-15 15:18:43 51°19.949 2°36.383 325.2 1.1 302 23.3
2009-06-15 15:19:43 51°19.975 2°36.347 330.1 2.7 324 23.6
2009-06-15 15:20:43 51°20.018 2°36.301 329.8 3 326 23.2
2009-06-15 15:21:43 51°20.055 2°36.262 330.9 2.3 327 22.7
2009-06-15 15:22:43 51°20.084 2°36.231 333.5 1.9 328 22.3
2009-06-15 15:23:43 51°20.109 2°36.207 336.1 1.6 331 22.3
2009-06-15 15:24:43 51°20.13 2°36.187 340.3 1.3 330 22.1
2009-06-15 15:25:43 51°20.15 2°36.172 344.3 1.3 335 22.3
2009-06-15 15:26:43 51°20.168 2°36.16 347 1.1 338 22.3
2009-06-15 15:27:43 51°20.185 2°36.15 348.6 1.1 341 22.2
2009-06-15 15:28:43 51°20.201 2°36.141 350.9 0.9 342 21.8
2009-06-15 15:29:43 51°20.216 2°36.134 353.7 0.9 344 21.9
2009-06-15 15:30:43 51°20.23 2°36.129 355.3 0.9 344 21.6
2009-06-15 15:31:43 51°20.244 2°36.125 356.9 0.7 346 21.5
2009-06-15 15:32:43 51°20.254 2°36.122 2 0.6 351 21.5
2009-06-15 15:33:43 51°20.262 2°36.121 8 0.5 2 21.3
2009-06-15 15:34:43 51°20.269 2°36.121 11 0.4 2 21
2009-06-15 15:35:43 51°20.275 2°36.122 10.3 0.3 11 21.4
2009-06-15 15:36:43 51°20.28 2°36.123 9.3 0.3 7 21.3
2009-06-15 15:37:43 51°20.288 2°36.128 18.3 1.4 23 21.4
2009-06-15 15:38:43 51°20.31 2°36.192 86.1 3.9 87 21.4
2009-06-15 15:39:43 51°20.286 2°36.359 110.5 8.7 109 22
2009-06-15 15:40:43 51°20.211 2°36.611 118.5 11.4 116 23.6
2009-06-15 15:41:43 51°20.12 2°36.879 123.5 11.5 121 23.7
2009-06-15 15:42:43 51°20.019 2°37.139 122.5 11.5 121 23.6
2009-06-15 15:43:43 51°19.921 2°37.403 124 11.6 120 24.2
2009-06-15 15:44:43 51°19.822 2°37.667 123.5 11.5 120 24.2
2009-06-15 15:45:43 51°19.725 2°37.933 122.7 11.6 120 24
2009-06-15 15:46:43 51°19.632 2°38.201 122 11.6 119 24.7
2009-06-15 15:47:43 51°19.539 2°38.471 122 11.6 118 25.9
2009-06-15 15:48:43 51°19.446 2°38.74 124.5 11.5 121 28.5
2009-06-15 15:49:43 51°19.341 2°38.993 128.6 11.4 126 30.5
2009-06-15 15:50:43 51°19.232 2°39.242 128.2 11.5 125 30.2
2009-06-15 15:51:43 51°19.126 2°39.496 125.5 11.5 122 28.1
2009-06-15 15:52:43 51°19.022 2°39.754 126.1 11.6 123 26
2009-06-15 15:53:43 51°18.917 2°40.012 127.2 11.6 123 25.5
2009-06-15 15:54:43 51°18.813 2°40.27 127.2 11.6 124 25.3
2009-06-15 15:55:43 51°18.707 2°40.532 126.6 11.9 124 16.9
2009-06-15 15:56:43 51°18.597 2°40.802 127.4 12.2 122 21.6
2009-06-15 15:57:43 51°18.488 2°41.068 126.8 12 121 19
2009-06-15 15:58:43 51°18.381 2°41.332 126.7 11.7 121 20.3
2009-06-15 15:59:43 51°18.275 2°41.59 128.1 11.5 124 24.6
2009-06-15 16:00:43 51°18.169 2°41.848 126.5 11.6 122 25.4
2009-06-15 16:01:43 51°18.064 2°42.108 128.6 11.7 123 26.1
2009-06-15 16:02:43 51°17.957 2°42.367 128.1 11.7 126 26.1
2009-06-15 16:03:43 51°17.853 2°42.63 127.4 11.8 121 25.5
2009-06-15 16:04:43 51°17.745 2°42.893 127.6 11.9 123 22.4
2009-06-15 16:05:43 51°17.635 2°43.16 126.3 12.1 124 13.5
2009-06-15 16:06:43 51°17.523 2°43.431 127.1 12.3 124 15
2009-06-15 16:07:43 51°17.415 2°43.698 126.4 11.8 123 17.7
2009-06-15 16:08:43 51°17.307 2°43.958 127 11.7 123 17.3
2009-06-15 16:09:43 51°17.2 2°44.217 127.4 11.7 122 17.7
2009-06-15 16:10:43 51°17.088 2°44.472 127.1 11.9 125 18.4
2009-06-15 16:11:43 51°16.976 2°44.733 128.4 11.8 124 16.8
2009-06-15 16:12:43 51°16.868 2°44.995 128 11.8 125 14.2
2009-06-15 16:13:43 51°16.749 2°45.245 130.5 11.8 128 13.7
2009-06-15 16:14:43 51°16.628 2°45.489 131.9 11.6 128 13.3
2009-06-15 16:15:43 51°16.497 2°45.712 142.5 11.5 136 12.8
2009-06-15 16:16:43 51°16.35 2°45.906 145.7 11.4 142 12.2
2009-06-15 16:17:43 51°16.202 2°46.101 143.8 11.7 136 13
2009-06-15 16:18:43 51°16.092 2°46.355 120.9 11.9 114 14.3
2009-06-15 16:19:43 51°16.037 2°46.666 108.4 12.2 105 16.9
2009-06-15 16:20:43 51°15.982 2°46.983 110.5 12.3 107 18.5
2009-06-15 16:21:43 51°15.899 2°47.28 120.5 12.3 115 18.6
2009-06-15 16:22:43 51°15.807 2°47.569 122.6 12.2 116 17.6
2009-06-15 16:23:43 51°15.715 2°47.857 120.5 12.3 114 15.5
2009-06-15 16:24:43 51°15.625 2°48.143 121.8 12.1 117 13.7
2009-06-15 16:25:43 51°15.568 2°48.441 95.2 11.9 88 12.8
2009-06-15 16:26:43 51°15.593 2°48.764 86.2 12.5 83 12.8
2009-06-15 16:27:43 51°15.617 2°49.092 87.1 12.5 86 13.2
2009-06-15 16:28:43 51°15.633 2°49.423 87.6 12.6 85 14.3
2009-06-15 16:29:43 51°15.641 2°49.757 93.6 12.7 90 15
2009-06-15 16:30:43 51°15.63 2°50.092 97.3 12.6 93 15.2
2009-06-15 16:31:43 51°15.607 2°50.421 101.9 12.5 97 15.1
2009-06-15 16:32:43 51°15.581 2°50.751 102 12.5 98 15.2
2009-06-15 16:33:43 51°15.547 2°51.077 108.7 12.3 103 15.1
2009-06-15 16:34:43 51°15.484 2°51.387 115.6 12.3 110 15
2009-06-15 16:35:43 51°15.41 2°51.688 119.5 12.2 113 14.4
2009-06-15 16:36:43 51°15.33 2°51.984 118.4 12.2 111 13.9
2009-06-15 16:37:43 51°15.252 2°52.283 118.7 12.2 113 13.6
2009-06-15 16:38:43 51°15.176 2°52.581 118.5 12.1 113 13.2
2009-06-15 16:39:43 51°15.097 2°52.878 119.9 12.3 112 12.7
2009-06-15 16:40:43 51°15.013 2°53.171 120.7 11.9 117 12.3
2009-06-15 16:41:43 51°14.932 2°53.465 120.5 12 116 12.2
2009-06-15 16:42:43 51°14.85 2°53.761 121 12.3 112 12.1
2009-06-15 16:43:43 51°14.765 2°54.058 117.8 12.3 110 12.1
2009-06-15 16:44:43 51°14.675 2°54.351 126.5 12.3 120 12.7
2009-06-15 16:45:43 51°14.572 2°54.632 128.6 12.3 122 12.6
2009-06-15 16:46:43 51°14.46 2°54.904 132.3 12.4 124 12.9
2009-06-15 16:47:43 51°14.331 2°55.149 134.8 11.7 135 12.7
2009-06-15 16:48:43 51°14.199 2°55.335 145.5 9.8 146 12.7
2009-06-15 16:49:43 51°14.066 2°55.451 153.8 8 153 12.6
2009-06-15 16:50:43 51°13.946 2°55.544 155.4 8.1 155 13.1
2009-06-15 16:51:43 51°13.824 2°55.635 154.9 8 155 12.6
2009-06-15 16:52:43 51°13.735 2°55.743 134.2 5.8 133 14.3
2009-06-15 16:53:43 51°13.688 2°55.848 119.1 4.4 117 11.1
2009-06-15 16:54:43 51°13.667 2°55.934 106.8 2.4 106 9.4
2009-06-15 16:55:43 51°13.663 2°55.959 114 0.3 128 8.5
2009-06-15 16:56:43 51°13.66 2°55.959 117.7 0.1 45 8.5
2009-06-15 16:57:43 51°13.663 2°55.961 126 0.1 37 8.3
2009-06-15 16:58:43 51°13.664 2°55.962 128.4 -999 175 8.3
2009-06-15 16:59:43 51°13.664 2°55.961 128.7 -999 154 8.3